Time;durP1;ratioP1;P1;durP2;ratioP2;P2;SDS_P1;SDS_P2;PMS_P1;PMS_P2;Temp;Humidity;BMP_temperature;BMP_pressure;BME280_temperature;BME280_humidity;BME280_pressure;Samples;Min_cycle;Max_cycle;Signal;HPM_P1;HPM_P2
2022/02/03 00:02:12;;;;;;;10.88;5.15;;;;;;;3.38;89.58;96930.09;5067411;28;20048;-75
2022/02/03 00:04:48;;;;;;;12.50;4.75;;;;;;;3.41;89.71;96920.72;5067184;28;20105;-75
2022/02/03 00:07:22;;;;;;;15.18;5.10;;;;;;;3.46;89.59;96923.44;5066899;28;20048;-75
2022/02/03 00:26:31;;;;;;;11.20;5.47;;;;;;;3.65;89.00;96927.34;5047207;28;20051;-75
2022/02/03 00:28:57;;;;;;;11.48;5.03;;;;;;;3.70;88.53;96929.25;5047119;28;20044;-75
2022/02/03 00:31:39;;;;;;;13.60;5.45;;;;;;;3.75;88.45;96929.28;5046956;28;20055;-75
2022/02/03 00:34:12;;;;;;;11.52;5.53;;;;;;;3.80;88.32;96928.50;5064202;28;20080;-75
2022/02/03 00:37:05;;;;;;;15.35;5.07;;;;;;;3.84;88.14;96930.41;5067112;28;20044;-75
2022/02/03 00:50:47;;;;;;;13.77;5.88;;;;;;;3.83;86.85;96938.75;5005155;28;20104;-73
2022/02/03 00:53:15;;;;;;;9.82;5.20;;;;;;;3.82;86.56;96937.16;5053181;28;20049;-73
2022/02/03 00:55:44;;;;;;;10.30;5.60;;;;;;;3.82;86.71;96942.53;5066731;28;20068;-73
2022/02/03 00:58:14;;;;;;;18.35;6.07;;;;;;;3.82;86.78;96940.66;5066789;28;20049;-73
2022/02/03 01:00:45;;;;;;;14.02;5.80;;;;;;;3.85;86.61;96942.00;5067131;28;20053;-73
2022/02/03 01:03:14;;;;;;;12.40;5.40;;;;;;;3.86;86.70;96947.16;5066721;28;20051;-73
2022/02/03 01:05:43;;;;;;;14.90;5.70;;;;;;;3.89;86.88;96949.31;5067023;28;20055;-73
2022/02/03 01:08:17;;;;;;;13.80;5.53;;;;;;;3.90;87.04;96945.53;5066421;28;20059;-73
2022/02/03 01:10:59;;;;;;;14.55;5.60;;;;;;;3.91;86.75;96943.63;5067310;28;20044;-73
2022/02/03 01:13:37;;;;;;;14.52;5.55;;;;;;;3.92;86.87;96943.41;5069123;28;20052;-73
2022/02/03 01:16:12;;;;;;;16.02;5.13;;;;;;;3.93;86.76;96934.25;5070395;28;20812;-73
2022/02/03 01:35:24;;;;;;;11.50;5.38;;;;;;;3.73;87.75;96926.03;5069670;28;20557;-73
2022/02/03 01:43:12;;;;;;;11.48;5.97;;;;;;;3.74;87.45;96919.56;5070315;28;20057;-73
2022/02/03 01:43:31;;;;;;;10.73;5.00;;;;;;;3.77;87.54;96918.25;5018278;28;20052;-73
2022/02/03 01:46:10;;;;;;;11.90;5.38;;;;;;;3.75;87.17;96915.81;5069876;28;20060;-73
2022/02/03 01:48:51;;;;;;;14.75;6.25;;;;;;;3.73;87.15;96917.16;5069882;28;20041;-73
2022/02/03 01:51:41;;;;;;;12.85;5.68;;;;;;;3.74;87.03;96921.47;5069708;28;20059;-73
2022/02/03 01:54:08;;;;;;;11.15;5.75;;;;;;;3.73;87.30;96912.56;5069095;28;20044;-75
2022/02/03 01:56:38;;;;;;;9.13;5.47;;;;;;;3.75;87.12;96913.09;5070114;28;20056;-74
2022/02/03 01:59:20;;;;;;;14.00;6.28;;;;;;;3.74;86.97;96911.50;5069644;28;20053;-73
2022/02/03 02:01:50;;;;;;;13.98;6.63;;;;;;;3.69;86.67;96916.84;5070071;28;20048;-73
2022/02/03 02:04:35;;;;;;;16.95;6.60;;;;;;;3.68;86.79;96915.22;5069014;28;20452;-73
2022/02/03 02:07:18;;;;;;;12.15;6.43;;;;;;;3.66;86.85;96909.31;5069182;28;20064;-73
2022/02/03 02:10:13;;;;;;;15.35;6.57;;;;;;;3.63;87.02;96907.13;5069596;28;20045;-73
2022/02/03 02:12:56;;;;;;;13.02;6.30;;;;;;;3.61;86.78;96907.38;5069450;28;20140;-73
2022/02/03 02:18:33;;;;;;;11.13;5.75;;;;;;;3.56;86.64;96893.88;5068795;28;20044;-73
2022/02/03 02:37:55;;;;;;;20.33;8.13;;;;;;;3.37;88.14;96871.94;5068991;28;20118;-73
2022/02/03 02:40:50;;;;;;;15.57;6.70;;;;;;;3.40;88.02;96876.81;5068590;28;20537;-75
2022/02/03 02:43:25;;;;;;;14.27;7.40;;;;;;;3.42;88.11;96878.44;5068358;28;20048;-75
2022/02/03 02:46:01;;;;;;;14.25;6.95;;;;;;;3.40;87.85;96882.22;5069006;28;20049;-75
2022/02/03 02:48:55;;;;;;;17.40;7.68;;;;;;;3.38;88.13;96873.56;5068528;28;20495;-75
2022/02/03 02:51:29;;;;;;;;;;;;;;;3.36;87.69;96878.41;5055441;28;20072;-75
2022/02/03 02:54:27;;;;;;;14.40;6.63;;;;;;;3.31;87.84;96873.00;5068219;28;19928;-74
2022/02/03 02:57:17;;;;;;;17.40;7.38;;;;;;;3.31;88.29;96878.38;5068616;28;20090;-74
2022/02/03 03:00:23;;;;;;;14.82;7.43;;;;;;;3.32;88.10;96874.59;5068572;28;20048;-73
2022/02/03 03:30:47;;;;;;;15.48;8.07;;;;;;;3.27;88.34;96869.19;5067847;28;20050;-73
2022/02/03 03:33:24;;;;;;;17.40;8.20;;;;;;;3.25;88.17;96867.84;5067498;28;20053;-75
2022/02/03 03:35:53;;;;;;;17.20;8.10;;;;;;;3.25;88.31;96874.03;5067842;28;20049;-73
2022/02/03 03:38:22;;;;;;;18.02;7.70;;;;;;;3.25;88.00;96879.41;5067113;28;20135;-74
2022/02/03 03:40:52;;;;;;;20.05;7.93;;;;;;;3.25;88.09;96879.41;5063595;28;20051;-73
2022/02/03 03:43:27;;;;;;;21.13;8.18;;;;;;;3.25;87.87;96874.03;5067229;28;20052;-73
2022/02/03 03:45:55;;;;;;;19.42;8.35;;;;;;;3.24;88.32;96875.09;5062621;28;20044;-73
2022/02/03 03:48:35;;;;;;;18.40;9.07;;;;;;;3.24;88.57;96867.03;5067086;28;20059;-73
2022/02/03 03:51:05;;;;;;;21.80;9.10;;;;;;;3.25;88.62;96865.16;5067438;28;20049;-73
2022/02/03 03:53:42;;;;;;;18.75;8.40;;;;;;;3.29;88.86;96868.91;5067849;28;20067;-73
2022/02/03 03:56:19;;;;;;;25.65;9.55;;;;;;;3.30;88.92;96871.38;5067306;28;20392;-73
2022/02/03 04:31:19;;;;;;;68.15;25.60;;;;;;;3.42;89.11;96846.13;5067478;28;20055;-73
2022/02/03 04:34:10;;;;;;;58.58;24.23;;;;;;;3.42;89.23;96846.13;5066877;28;20048;-73
2022/02/03 04:51:41;;;;;;;46.03;19.15;;;;;;;3.53;89.19;96837.03;5051000;28;20059;-73
2022/02/03 05:01:13;;;;;;;27.20;13.70;;;;;;;3.64;89.37;96830.63;4969161;28;20142;-73
2022/02/03 05:04:01;;;;;;;26.58;11.55;;;;;;;3.67;89.65;96822.03;4969134;28;20047;-72
2022/02/03 05:06:50;;;;;;;24.25;10.50;;;;;;;3.71;89.37;96823.16;5041866;28;20041;-72
2022/02/03 05:09:47;;;;;;;18.77;10.88;;;;;;;3.74;89.51;96816.41;5050422;28;20060;-73
2022/02/03 05:12:38;;;;;;;18.05;9.52;;;;;;;3.77;89.90;96810.50;5050344;28;20135;-73
2022/02/03 05:15:34;;;;;;;18.05;9.27;;;;;;;3.76;89.70;96809.69;5051687;28;20055;-73
2022/02/03 05:18:34;;;;;;;15.85;9.40;;;;;;;3.78;89.83;96810.25;5050652;28;20566;-75
2022/02/03 05:21:55;;;;;;;19.45;8.27;;;;;;;3.80;89.90;96815.34;5050407;28;20611;-74
2022/02/03 05:25:03;;;;;;;15.68;8.05;;;;;;;3.81;89.93;96809.72;5049818;28;20053;-74
2022/02/03 05:34:17;;;;;;;13.88;6.95;;;;;;;3.85;90.18;96813.50;5008575;28;20064;-73
2022/02/03 05:48:39;;;;;;;13.13;6.75;;;;;;;3.89;90.62;96803.81;5035384;28;20104;-75
2022/02/03 06:05:10;;;;;;;12.40;6.72;;;;;;;3.92;90.69;96792.53;5048767;28;20102;-75
2022/02/03 06:13:10;;;;;;;14.40;6.72;;;;;;;3.93;90.56;96788.75;5049420;28;20102;-73
2022/02/03 06:15:44;;;;;;;10.85;6.22;;;;;;;3.95;90.40;96791.16;5055262;28;20194;-73
2022/02/03 06:23:47;;;;;;;10.35;6.35;;;;;;;4.01;90.72;96792.78;5065440;28;20047;-75
2022/02/03 06:29:14;;;;;;;9.10;5.32;;;;;;;4.08;90.57;96787.19;4986634;28;20100;-75
2022/02/03 06:31:43;;;;;;;10.10;5.47;;;;;;;4.11;90.93;96789.31;5050616;28;20537;-74
2022/02/03 06:34:10;;;;;;;7.22;4.50;;;;;;;4.12;90.63;96785.53;5068404;28;20056;-74
2022/02/03 06:36:38;;;;;;;12.80;4.97;;;;;;;4.15;90.84;96785.84;5068886;28;20048;-74
2022/02/03 06:39:12;;;;;;;7.68;4.47;;;;;;;4.18;90.89;96787.19;5068634;28;20049;-75
2022/02/03 06:41:39;;;;;;;9.35;5.30;;;;;;;4.20;91.12;96785.03;5068974;28;20041;-74
2022/02/03 06:44:05;;;;;;;9.88;5.32;;;;;;;4.23;91.06;96781.81;5068236;28;20052;-76
2022/02/03 06:46:33;;;;;;;7.85;4.60;;;;;;;4.26;91.29;96794.75;5068075;28;20040;-74
2022/02/03 06:49:11;;;;;;;10.48;4.68;;;;;;;4.28;91.30;96789.09;5068818;28;20037;-74
2022/02/03 06:51:44;;;;;;;7.05;4.18;;;;;;;4.30;91.43;96785.06;5068518;28;20040;-75
2022/02/03 06:54:18;;;;;;;11.70;5.07;;;;;;;4.32;91.39;96782.88;5067962;28;20048;-74
2022/02/03 06:56:51;;;;;;;6.82;4.25;;;;;;;4.33;91.44;96781.84;5068643;28;20041;-74
2022/02/03 06:59:24;;;;;;;9.18;4.65;;;;;;;4.35;91.96;96776.16;5068394;28;20056;-75
2022/02/03 07:01:50;;;;;;;10.90;5.87;;;;;;;4.38;91.74;96779.13;5068705;28;20036;-75
2022/02/03 07:04:25;;;;;;;6.90;4.47;;;;;;;4.39;91.88;96775.38;5067785;28;20063;-75
2022/02/03 07:06:51;;;;;;;9.40;4.80;;;;;;;4.41;91.97;96775.91;5068411;28;20570;-75
2022/02/03 07:09:18;;;;;;;9.48;4.80;;;;;;;4.41;91.72;96778.59;5067461;28;20392;-74
2022/02/03 07:11:44;;;;;;;7.55;4.50;;;;;;;4.42;91.49;96780.22;5068140;28;20052;-75
2022/02/03 07:14:12;;;;;;;7.38;4.25;;;;;;;4.42;91.42;96772.13;5067665;28;20748;-73
2022/02/03 07:16:46;;;;;;;7.60;4.15;;;;;;;4.44;91.76;96772.69;5067955;28;20048;-75
2022/02/03 07:19:13;;;;;;;7.18;4.22;;;;;;;4.45;91.55;96779.69;5067965;28;20055;-75
2022/02/03 07:21:41;;;;;;;8.13;3.83;;;;;;;4.49;91.76;96773.75;5068473;28;20415;-75
2022/02/03 07:24:08;;;;;;;7.88;3.90;;;;;;;4.52;91.56;96775.91;5067637;28;20090;-75
2022/02/03 07:26:35;;;;;;;10.65;5.70;;;;;;;4.52;91.80;96773.22;5067932;28;20059;-75
2022/02/03 07:29:01;;;;;;;11.05;4.72;;;;;;;4.55;91.92;96770.00;5067554;28;20059;-75
2022/02/03 07:31:28;;;;;;;6.50;3.67;;;;;;;4.55;91.70;96773.50;5068043;28;20060;-75
2022/02/03 07:33:58;;;;;;;6.68;3.70;;;;;;;4.59;91.69;96773.75;5067905;28;20044;-75
2022/02/03 07:36:24;;;;;;;6.35;3.88;;;;;;;4.61;91.72;96760.81;5067011;28;20056;-74
2022/02/03 07:38:52;;;;;;;7.32;4.07;;;;;;;4.64;91.88;96766.47;5068266;28;20048;-75
2022/02/03 07:41:19;;;;;;;5.00;3.45;;;;;;;4.67;91.87;96755.16;5067707;28;20044;-74
2022/02/03 07:43:45;;;;;;;8.68;3.95;;;;;;;4.71;91.75;96755.44;5067812;28;20079;-74
2022/02/03 07:46:12;;;;;;;12.63;5.35;;;;;;;4.75;91.77;96756.50;5064617;28;20136;-74
2022/02/03 07:48:39;;;;;;;9.95;4.68;;;;;;;4.76;91.72;96747.34;5067832;28;20048;-75
2022/02/03 07:51:05;;;;;;;7.13;3.65;;;;;;;4.80;91.68;96740.28;5067464;28;20129;-75
2022/02/03 07:53:32;;;;;;;7.18;3.83;;;;;;;4.84;91.94;96735.97;5067686;28;20059;-74
2022/02/03 07:56:00;;;;;;;6.05;3.53;;;;;;;4.89;91.77;96735.97;5067447;28;20052;-73
2022/02/03 07:58:26;;;;;;;7.20;3.90;;;;;;;4.91;91.87;96743.81;5067500;28;20052;-73
2022/02/03 08:00:53;;;;;;;5.88;3.95;;;;;;;4.95;92.05;96740.28;5068042;28;20048;-73
2022/02/03 08:03:19;;;;;;;8.27;4.20;;;;;;;5.01;91.61;96743.78;5067094;28;20052;-73
2022/02/03 08:05:51;;;;;;;8.43;4.40;;;;;;;5.06;92.03;96740.25;5067318;28;20052;-73
2022/02/03 08:08:23;;;;;;;9.20;4.35;;;;;;;5.10;91.74;96734.03;5067064;28;20591;-73
2022/02/03 08:10:54;;;;;;;7.28;3.88;;;;;;;5.16;91.41;96724.03;5067811;28;20495;-73
2022/02/03 08:13:23;;;;;;;6.15;3.83;;;;;;;5.19;91.64;96726.19;5067264;28;20482;-73
2022/02/03 08:15:56;;;;;;;6.25;3.53;;;;;;;5.26;91.67;96718.63;5067141;28;20056;-73
2022/02/03 08:18:22;;;;;;;;;;;;;;;5.30;91.15;96725.09;5068015;28;20131;-73
2022/02/03 08:20:53;;;;;;;6.68;3.72;;;;;;;5.38;91.35;96718.31;5067905;28;20296;-73
2022/02/03 08:26:10;;;;;;;5.90;3.53;;;;;;;5.51;90.97;96731.22;5056893;28;20055;-74
2022/02/03 08:28:58;;;;;;;8.38;3.42;;;;;;;5.57;90.92;96729.31;5071813;28;20048;-73
2022/02/03 08:31:28;;;;;;;6.63;3.47;;;;;;;5.61;90.46;96714.16;5071294;28;20131;-73
2022/02/03 08:33:55;;;;;;;4.05;2.72;;;;;;;5.65;90.20;96717.94;5071403;28;20419;-73
2022/02/03 08:36:22;;;;;;;5.72;3.03;;;;;;;5.70;90.43;96717.91;5071092;28;20050;-75
2022/02/03 08:38:53;;;;;;;4.10;2.72;;;;;;;5.74;89.79;96714.38;5071789;28;20043;-73
2022/02/03 08:41:21;;;;;;;4.05;2.50;;;;;;;5.77;89.34;96715.72;5071385;28;20040;-73
2022/02/03 08:43:49;;;;;;;3.72;2.38;;;;;;;5.80;88.92;96706.25;5071046;28;20043;-73
2022/02/03 08:46:16;;;;;;;4.10;2.20;;;;;;;5.82;88.06;96712.97;5069931;28;20048;-73
2022/02/03 08:48:43;;;;;;;3.80;2.10;;;;;;;5.86;88.21;96705.94;5070952;28;20049;-73
2022/02/03 08:51:12;;;;;;;4.70;3.05;;;;;;;5.93;87.90;96711.88;5070744;28;20043;-73
2022/02/03 08:53:42;;;;;;;4.90;2.63;;;;;;;6.00;87.88;96706.13;5070839;28;20761;-73
2022/02/03 08:56:21;;;;;;;6.10;2.30;;;;;;;6.12;87.47;96708.53;5070533;28;20446;-73
2022/02/03 09:40:18;;;;;;;2.72;1.80;;;;;;;7.31;81.17;96670.09;5070587;28;20102;-73
2022/02/03 09:59:43;;;;;;;3.85;2.10;;;;;;;9.36;73.21;96641.31;5053728;28;20095;-73
2022/02/03 10:02:15;;;;;;;5.65;1.85;;;;;;;10.10;69.51;96643.78;5069555;28;20064;-73
2022/02/03 10:04:47;;;;;;;9.63;2.47;;;;;;;10.66;68.38;96642.47;5069358;28;20072;-73
2022/02/03 10:07:20;;;;;;;3.27;1.80;;;;;;;10.76;65.16;96644.13;5069506;28;20163;-73
2022/02/03 10:09:47;;;;;;;4.47;2.05;;;;;;;10.84;65.95;96640.63;5069827;28;20294;-73
2022/02/03 10:12:15;;;;;;;2.75;1.90;;;;;;;10.92;64.70;96642.63;5069279;28;20044;-73
2022/02/03 10:14:44;;;;;;;3.40;2.30;;;;;;;10.66;65.53;96637.03;5069386;28;20048;-73
2022/02/03 10:17:11;;;;;;;3.95;1.92;;;;;;;10.74;65.74;96635.44;5068865;28;20049;-73
2022/02/03 10:19:41;;;;;;;2.90;1.85;;;;;;;10.82;65.89;96626.53;5069821;28;20109;-73
2022/02/03 10:22:18;;;;;;;4.00;2.33;;;;;;;10.77;65.43;96626.66;5069342;28;20047;-73
2022/02/03 10:24:48;;;;;;;3.70;2.17;;;;;;;11.00;66.31;96619.25;5069340;28;20087;-73
2022/02/03 10:27:27;;;;;;;3.35;2.10;;;;;;;10.81;65.15;96612.13;5068954;28;20048;-72
2022/02/03 10:30:08;;;;;;;4.55;2.13;;;;;;;10.53;67.92;96608.75;5069287;28;20094;-73
2022/02/03 10:32:38;;;;;;;3.42;2.10;;;;;;;10.69;67.01;96601.78;5069234;28;20115;-73
2022/02/03 10:35:29;;;;;;;4.80;2.15;;;;;;;10.82;67.22;96596.56;5068588;28;20078;-73
2022/02/03 10:49:21;;;;;;;5.28;2.30;;;;;;;11.60;65.15;96570.34;5068754;28;20079;-73
2022/02/03 10:52:31;;;;;;;4.75;2.78;;;;;;;11.97;63.40;96562.69;5068997;28;20050;-73
2022/02/03 11:00:53;;;;;;;3.25;2.40;;;;;;;12.24;61.43;96545.97;5068633;28;20119;-75
2022/02/03 11:03:29;;;;;;;2.83;2.00;;;;;;;12.33;60.27;96542.44;5068118;28;20563;-75
2022/02/03 11:06:10;;;;;;;4.22;2.35;;;;;;;12.46;60.92;96546.88;5068102;28;20418;-75
2022/02/03 11:08:43;;;;;;;3.33;2.30;;;;;;;12.24;60.63;96526.06;5068431;28;20048;-74
2022/02/03 11:11:17;;;;;;;3.15;2.15;;;;;;;11.90;60.59;96521.44;5068179;28;20058;-75
2022/02/03 11:13:44;;;;;;;4.00;2.20;;;;;;;11.41;61.68;96523.47;5068520;28;20064;-73
2022/02/03 11:16:12;;;;;;;4.18;2.58;;;;;;;10.84;63.62;96520.78;5067570;28;20048;-73
2022/02/03 11:18:41;;;;;;;3.00;2.22;;;;;;;10.43;66.01;96511.00;5068689;28;20055;-73
2022/02/03 11:21:09;;;;;;;3.80;2.45;;;;;;;10.29;66.91;96515.75;5068223;28;20148;-73
2022/02/03 11:23:39;;;;;;;3.55;2.55;;;;;;;10.11;67.47;96523.75;5068449;28;20052;-73
2022/02/03 11:26:18;;;;;;;4.72;2.50;;;;;;;10.12;67.44;96528.06;5067556;28;20057;-73
2022/02/03 11:29:23;;;;;;;3.90;2.60;;;;;;;10.14;67.20;96528.59;5068430;28;20450;-73
2022/02/03 11:32:23;;;;;;;3.92;2.50;;;;;;;10.02;67.80;96525.59;5068282;28;20077;-73
2022/02/03 11:40:44;;;;;;;4.05;2.50;;;;;;;10.05;67.79;96500.50;5067714;28;20075;-73
2022/02/03 12:03:10;;;;;;;3.00;1.77;;;;;;;10.24;65.23;96467.69;5068058;28;20045;-73
2022/02/03 12:11:51;;;;;;;3.60;1.65;;;;;;;11.40;61.18;96434.63;4973886;28;20062;-72
2022/02/03 12:17:25;;;;;;;1.58;1.17;;;;;;;11.50;59.73;96423.41;5067321;28;20112;-76
2022/02/03 12:20:09;;;;;;;3.75;1.67;;;;;;;11.46;59.57;96422.44;5067763;28;20407;-75
2022/02/03 12:25:37;;;;;;;8.70;1.70;;;;;;;11.38;60.86;96410.41;5066563;28;20175;-73
2022/02/03 12:28:18;;;;;;;9.82;2.00;;;;;;;11.39;63.12;96401.13;5067280;28;20052;-73
2022/02/03 12:30:54;;;;;;;7.20;1.75;;;;;;;11.29;61.32;96397.91;5067400;28;20454;-73
2022/02/03 12:38:55;;;;;;;3.45;1.55;;;;;;;10.94;61.64;96378.81;5068014;28;20071;-73
2022/02/03 12:41:32;;;;;;;4.47;2.10;;;;;;;10.87;62.34;96373.06;5066828;28;20055;-73
2022/02/03 12:44:02;;;;;;;3.40;1.80;;;;;;;10.81;63.40;96369.69;5067591;28;20147;-73
2022/02/03 12:46:29;;;;;;;3.83;2.17;;;;;;;10.74;64.39;96368.53;5066516;28;20060;-74
2022/02/03 12:48:57;;;;;;;7.50;2.28;;;;;;;10.74;65.50;96363.09;5067553;28;20045;-74
2022/02/03 12:51:25;;;;;;;2.85;1.45;;;;;;;10.69;63.13;96351.22;5067042;28;20410;-75
2022/02/03 12:53:53;;;;;;;13.85;2.67;;;;;;;10.71;63.80;96349.00;5066958;28;20059;-75
2022/02/03 12:56:22;;;;;;;6.32;2.03;;;;;;;10.63;64.27;96346.25;5066643;28;20049;-73
2022/02/03 12:58:53;;;;;;;5.70;2.00;;;;;;;10.60;64.03;96342.25;5067430;28;20049;-75
2022/02/03 13:01:29;;;;;;;4.18;1.75;;;;;;;10.60;63.85;96344.97;5066790;28;20052;-75
2022/02/03 13:03:55;;;;;;;6.53;1.80;;;;;;;10.61;64.06;96343.06;5066959;28;20447;-75
2022/02/03 13:06:27;;;;;;;2.70;1.60;;;;;;;10.61;65.23;96332.97;5066743;28;20059;-72
2022/02/03 13:08:57;;;;;;;5.13;1.83;;;;;;;10.60;65.44;96330.56;5069301;28;20045;-75
2022/02/03 13:11:29;;;;;;;3.03;1.83;;;;;;;10.54;65.51;96327.16;5070538;28;20045;-75
2022/02/03 13:14:07;;;;;;;1.33;1.10;;;;;;;10.50;65.15;96326.22;5070847;28;20040;-75
2022/02/03 13:16:34;;;;;;;2.65;1.75;;;;;;;10.48;65.06;96333.88;5070383;28;20282;-75
2022/02/03 13:19:08;;;;;;;2.90;1.70;;;;;;;10.45;65.24;96318.22;5070888;28;20074;-74
2022/02/03 13:21:59;;;;;;;2.33;1.52;;;;;;;10.42;66.54;96316.91;5070505;28;20502;-73
2022/02/03 13:24:42;;;;;;;3.40;1.90;;;;;;;10.40;67.11;96304.75;5069845;28;20499;-73
2022/02/03 13:27:12;;;;;;;;;;;;;;;10.39;67.42;96297.72;5071127;28;20052;-75
2022/02/03 13:29:48;;;;;;;4.13;1.90;;;;;;;10.37;67.81;96295.28;5070788;28;19970;-75
2022/02/03 13:32:21;;;;;;;4.00;1.70;;;;;;;10.35;67.53;96296.72;5070545;28;20048;-75
2022/02/03 13:34:54;;;;;;;4.18;1.90;;;;;;;10.36;68.16;96290.16;5070810;28;20048;-75
2022/02/03 13:37:31;;;;;;;8.38;2.30;;;;;;;10.36;67.71;96290.16;5070311;28;20049;-74
2022/02/03 13:40:07;;;;;;;24.58;4.05;;;;;;;10.35;66.18;96286.66;5070510;28;20152;-75
2022/02/03 13:42:34;;;;;;;32.50;6.85;;;;;;;10.31;67.13;96287.59;5070589;28;20094;-74
2022/02/03 13:45:06;;;;;;;10.60;3.42;;;;;;;10.29;68.09;96287.13;5070002;28;20592;-74
2022/02/03 13:47:35;;;;;;;6.40;2.20;;;;;;;10.27;67.28;96276.53;5069802;28;20040;-75
2022/02/03 13:50:05;;;;;;;7.25;3.22;;;;;;;10.23;67.49;96278.25;5069748;28;20047;-75
2022/02/03 13:52:40;;;;;;;4.00;2.10;;;;;;;10.21;67.75;96280.50;5070324;28;20683;-74
2022/02/03 14:15:07;;;;;;;4.15;2.50;;;;;;;10.01;68.03;96232.13;5069343;28;20041;-73
2022/02/03 14:17:53;;;;;;;3.30;2.30;;;;;;;10.02;67.96;96239.16;5068894;28;20036;-73
2022/02/03 14:20:39;;;;;;;3.15;2.13;;;;;;;10.05;68.45;96231.16;5069003;28;20729;-74
2022/02/03 14:28:50;;;;;;;2.97;2.00;;;;;;;10.00;67.75;96217.72;4987954;28;20177;-75
2022/02/03 14:31:17;;;;;;;3.58;2.30;;;;;;;9.99;67.87;96212.59;5032338;28;20044;-75
2022/02/03 14:33:43;;;;;;;4.22;2.13;;;;;;;9.92;67.12;96189.41;5069915;28;20056;-75
2022/02/03 14:36:16;;;;;;;4.78;2.30;;;;;;;9.89;67.57;96192.75;5068532;28;20063;-75
2022/02/03 14:38:49;;;;;;;4.27;1.97;;;;;;;9.86;68.08;96196.06;5069711;28;20041;-75
2022/02/03 14:41:24;;;;;;;3.40;2.55;;;;;;;9.87;67.98;96194.19;5068808;28;20919;-77
2022/02/03 14:43:51;;;;;;;3.88;2.35;;;;;;;9.85;68.36;96182.81;5069129;28;20043;-75
2022/02/03 14:46:18;;;;;;;5.68;2.50;;;;;;;9.81;68.81;96179.91;5067831;28;20047;-74
2022/02/03 14:48:46;;;;;;;4.72;2.60;;;;;;;9.78;68.60;96166.16;5069377;28;20418;-75
2022/02/03 14:51:15;;;;;;;6.07;3.03;;;;;;;9.71;68.54;96173.97;5068845;28;20048;-74
2022/02/03 14:59:16;;;;;;;5.70;2.47;;;;;;;9.48;68.97;96171.34;5068811;28;20055;-74
2022/02/03 15:01:43;;;;;;;4.40;2.50;;;;;;;9.40;68.97;96174.88;5068696;28;20047;-75
2022/02/03 15:04:12;;;;;;;3.90;2.58;;;;;;;9.34;68.96;96167.94;5067910;28;20045;-75
2022/02/03 15:06:41;;;;;;;6.15;2.70;;;;;;;9.29;69.45;96149.06;5068442;28;20074;-75
2022/02/03 15:09:18;;;;;;;4.88;2.83;;;;;;;9.24;69.67;96144.59;5068324;28;20125;-75
2022/02/03 15:12:01;;;;;;;4.60;2.80;;;;;;;9.18;69.89;96150.47;5068473;28;20048;-76
2022/02/03 15:14:27;;;;;;;4.53;2.92;;;;;;;9.11;70.05;96150.94;5068276;28;20055;-75
2022/02/03 15:16:54;;;;;;;4.63;2.95;;;;;;;9.04;70.54;96151.38;5068097;28;20040;-75
2022/02/03 15:19:20;;;;;;;7.60;3.10;;;;;;;9.03;70.35;96144.34;5067928;28;20068;-75
2022/02/03 15:21:47;;;;;;;4.10;2.83;;;;;;;9.00;70.77;96139.53;5068401;28;20079;-75
2022/02/03 15:24:13;;;;;;;5.97;3.70;;;;;;;8.95;71.20;96142.38;5067303;28;20059;-75
2022/02/03 15:26:41;;;;;;;8.32;3.97;;;;;;;8.92;71.49;96145.72;5068425;28;20060;-75
2022/02/03 15:29:10;;;;;;;7.15;3.75;;;;;;;8.92;71.94;96159.28;5068142;28;20139;-75
2022/02/03 15:31:37;;;;;;;9.93;3.80;;;;;;;8.86;71.81;96155.13;5068001;28;20127;-74
2022/02/03 15:34:09;;;;;;;8.57;3.47;;;;;;;8.81;72.34;96141.66;5067671;28;20076;-75
2022/02/03 15:36:37;;;;;;;5.43;3.40;;;;;;;8.76;72.54;96144.53;5068457;28;20052;-75
2022/02/03 15:39:08;;;;;;;6.43;3.40;;;;;;;8.73;72.67;96135.09;5068041;28;20055;-74
2022/02/03 15:41:35;;;;;;;9.77;3.40;;;;;;;8.71;72.89;96136.50;5068502;28;20052;-75
2022/02/03 15:44:02;;;;;;;6.82;3.50;;;;;;;8.65;73.14;96132.31;5067693;28;20438;-75
2022/02/03 15:46:32;;;;;;;6.07;3.63;;;;;;;8.63;73.37;96135.34;5067268;28;20044;-75
2022/02/03 15:49:08;;;;;;;8.18;3.65;;;;;;;8.57;73.57;96129.25;5067738;28;20127;-74
2022/02/03 15:57:21;;;;;;;16.98;13.27;;;;;;;8.33;74.28;96126.84;5067393;28;20059;-75
2022/02/03 16:02:56;;;;;;;6.82;5.40;;;;;;;8.18;74.58;96124.47;5067346;28;20051;-74
2022/02/03 16:19:09;;;;;;;23.35;12.40;;;;;;;7.86;76.90;96122.81;5046164;28;20060;-75
2022/02/03 16:21:41;;;;;;;19.50;11.32;;;;;;;7.83;77.08;96128.84;5067202;28;20644;-75
2022/02/03 16:24:24;;;;;;;18.50;10.13;;;;;;;7.78;77.84;96127.06;5066828;28;20502;-74
2022/02/03 16:41:05;;;;;;;13.50;8.43;;;;;;;7.40;78.90;96128.41;5066955;28;20105;-75
2022/02/03 16:52:01;;;;;;;11.15;6.18;;;;;;;7.31;79.39;96139.16;5071029;28;20454;-74
2022/02/03 16:54:27;;;;;;;11.20;5.78;;;;;;;7.24;79.33;96133.34;5070599;28;20127;-75
2022/02/03 16:56:59;;;;;;;14.75;7.70;;;;;;;7.18;79.21;96123.72;5070324;28;20049;-75
2022/02/03 16:59:28;;;;;;;17.77;9.38;;;;;;;7.12;79.74;96106.78;5070294;28;20129;-75
2022/02/03 17:01:54;;;;;;;15.77;9.18;;;;;;;7.07;80.00;96107.66;5070364;28;20122;-76
2022/02/03 17:04:21;;;;;;;18.30;8.88;;;;;;;7.11;80.24;96112.50;5068680;28;20060;-75
2022/02/03 17:06:49;;;;;;;20.60;9.88;;;;;;;7.02;79.99;96096.94;5070255;28;20435;-75
2022/02/03 17:09:15;;;;;;;20.65;9.00;;;;;;;7.03;80.62;96116.69;5070023;28;20057;-75
2022/02/03 17:11:42;;;;;;;18.83;7.80;;;;;;;7.02;80.71;96110.47;5070251;28;20120;-75
2022/02/03 17:14:08;;;;;;;12.63;7.60;;;;;;;6.97;80.72;96102.47;5069390;28;20542;-76
2022/02/03 17:16:39;;;;;;;18.35;8.32;;;;;;;6.93;80.99;96101.44;5069576;28;20052;-75
2022/02/03 17:19:05;;;;;;;17.08;9.48;;;;;;;6.92;80.85;96105.25;5069820;28;20048;-76
2022/02/03 17:21:32;;;;;;;17.75;9.52;;;;;;;6.87;81.00;96113.47;5070164;28;20434;-75
2022/02/03 17:24:00;;;;;;;22.63;11.20;;;;;;;6.83;81.23;96107.06;5070120;28;20052;-75
2022/02/03 17:26:33;;;;;;;21.80;11.23;;;;;;;6.82;81.37;96110.88;5069479;28;20054;-75
2022/02/03 17:29:06;;;;;;;19.17;10.70;;;;;;;6.78;81.49;96110.66;5070180;28;20051;-75
2022/02/03 17:31:49;;;;;;;;;;;;;;;6.82;81.56;96119.00;5070176;28;20124;-75
2022/02/03 18:07:55;;;;;;;21.92;12.25;;;;;;;6.43;83.45;96079.66;5048274;28;20121;-75
2022/02/03 18:10:45;;;;;;;20.25;11.88;;;;;;;6.38;82.94;96078.97;5048753;28;20745;-75
2022/02/03 18:29:58;;;;;;;14.32;9.52;;;;;;;6.25;83.82;96064.28;5068599;28;20571;-75
2022/02/03 18:51:58;;;;;;;17.05;9.27;;;;;;;6.11;84.78;96071.56;5068081;28;20091;-75
2022/02/03 18:54:29;;;;;;;15.48;10.02;;;;;;;6.13;84.41;96082.91;5067710;28;20045;-75
2022/02/03 18:57:03;;;;;;;14.38;8.65;;;;;;;6.09;85.27;96068.34;5068087;28;20443;-75
2022/02/03 18:59:59;;;;;;;16.00;9.15;;;;;;;6.04;85.36;96046.81;5068221;28;20054;-75
2022/02/03 19:03:01;;;;;;;13.88;9.23;;;;;;;6.06;85.17;96045.44;5067807;28;20063;-75
2022/02/03 19:27:56;;;;;;;17.65;10.20;;;;;;;5.96;84.40;96032.91;5067116;28;20087;-75
2022/02/03 20:06:11;;;;;;;12.57;7.55;;;;;;;5.71;81.90;96038.69;5067629;28;20052;-77
2022/02/03 20:08:44;;;;;;;13.00;7.60;;;;;;;5.73;80.89;96052.69;5067619;28;20078;-77
2022/02/03 20:11:14;;;;;;;15.07;8.93;;;;;;;5.68;80.70;96053.56;5066862;28;20442;-79
2022/02/03 20:13:41;;;;;;;12.80;7.85;;;;;;;5.65;81.30;96056.06;5066995;28;20044;-80
2022/02/03 20:16:07;;;;;;;13.77;7.32;;;;;;;5.62;80.92;96056.66;5066083;28;20052;-76
2022/02/03 20:18:34;;;;;;;10.90;6.95;;;;;;;5.58;81.05;96059.13;5066968;28;20145;-76
2022/02/03 20:21:00;;;;;;;15.07;7.13;;;;;;;5.55;81.50;96050.81;5064814;28;20040;-76
2022/02/03 20:23:27;;;;;;;10.80;6.25;;;;;;;5.50;81.58;96055.19;5066857;28;20577;-77
2022/02/03 20:25:57;;;;;;;11.75;6.93;;;;;;;5.51;81.54;96056.00;5066570;28;20079;-76
2022/02/03 20:28:24;;;;;;;9.82;6.18;;;;;;;5.48;81.75;96043.88;5066534;28;20044;-76
2022/02/03 20:30:51;;;;;;;10.05;6.53;;;;;;;5.47;81.47;96039.56;5048651;28;20110;-77
2022/02/03 20:33:18;;;;;;;10.35;6.38;;;;;;;5.44;81.53;96033.97;5066456;28;20051;-77
2022/02/03 20:35:45;;;;;;;11.10;5.78;;;;;;;5.44;81.75;96026.66;5048284;28;20056;-77
2022/02/03 20:38:14;;;;;;;10.73;6.10;;;;;;;5.47;81.91;96019.84;5048468;28;20458;-77
2022/02/03 20:40:42;;;;;;;9.05;5.90;;;;;;;5.46;81.64;96019.06;5067198;28;20056;-76
2022/02/03 20:43:09;;;;;;;10.07;6.18;;;;;;;5.50;81.59;96028.19;5066681;28;20048;-77
2022/02/03 20:45:36;;;;;;;10.30;5.60;;;;;;;5.48;81.46;96016.88;5066313;28;20071;-77
2022/02/03 20:48:03;;;;;;;9.13;5.22;;;;;;;5.47;81.72;96017.16;5066371;28;20537;-77